sensor_id;sensor_type;location;lat;lon;timestamp;pressure;altitude;pressure_sealevel;temperature;humidity
36234;BME280;43467;50.890;5.982;2023-05-10T00:01:57;99497.41;;;14.31;100.00
36234;BME280;43467;50.890;5.982;2023-05-10T00:04:23;99503.63;;;14.19;100.00
36234;BME280;43467;50.890;5.982;2023-05-10T00:06:52;99497.28;;;14.09;100.00
36234;BME280;43467;50.890;5.982;2023-05-10T00:09:17;99492.47;;;14.14;100.00
36234;BME280;43467;50.890;5.982;2023-05-10T00:11:43;99491.50;;;14.15;100.00
36234;BME280;43467;50.890;5.982;2023-05-10T00:14:08;99487.03;;;14.15;100.00
36234;BME280;43467;50.890;5.982;2023-05-10T00:16:34;99484.47;;;14.26;100.00
36234;BME280;43467;50.890;5.982;2023-05-10T00:18:59;99481.66;;;14.28;100.00
36234;BME280;43467;50.890;5.982;2023-05-10T00:21:24;99489.03;;;14.37;100.00
36234;BME280;43467;50.890;5.982;2023-05-10T00:23:50;99481.56;;;14.29;100.00
36234;BME280;43467;50.890;5.982;2023-05-10T00:26:16;99484.94;;;14.31;100.00
36234;BME280;43467;50.890;5.982;2023-05-10T00:28:42;99488.38;;;14.33;100.00
36234;BME280;43467;50.890;5.982;2023-05-10T00:31:07;99491.78;;;14.35;100.00
36234;BME280;43467;50.890;5.982;2023-05-10T00:33:32;99494.63;;;14.45;100.00
36234;BME280;43467;50.890;5.982;2023-05-10T00:35:58;99499.88;;;14.47;100.00
36234;BME280;43467;50.890;5.982;2023-05-10T00:38:24;99490.44;;;14.54;100.00
36234;BME280;43467;50.890;5.982;2023-05-10T00:40:49;99489.22;;;14.47;100.00
36234;BME280;43467;50.890;5.982;2023-05-10T00:43:15;99494.97;;;14.40;100.00
36234;BME280;43467;50.890;5.982;2023-05-10T00:45:40;99493.59;;;14.35;100.00
36234;BME280;43467;50.890;5.982;2023-05-10T00:48:06;99481.22;;;14.34;100.00
36234;BME280;43467;50.890;5.982;2023-05-10T00:50:33;99499.25;;;14.30;100.00
36234;BME280;43467;50.890;5.982;2023-05-10T00:52:59;99484.78;;;14.22;100.00
36234;BME280;43467;50.890;5.982;2023-05-10T00:55:26;99499.25;;;14.30;100.00
36234;BME280;43467;50.890;5.982;2023-05-10T00:57:53;99488.06;;;14.25;100.00
36234;BME280;43467;50.890;5.982;2023-05-10T01:00:19;99487.97;;;14.14;100.00
36234;BME280;43467;50.890;5.982;2023-05-10T01:02:45;99480.66;;;14.18;100.00
36234;BME280;43467;50.890;5.982;2023-05-10T01:05:12;99486.59;;;14.21;100.00
36234;BME280;43467;50.890;5.982;2023-05-10T01:07:37;99495.31;;;14.23;100.00
36234;BME280;43467;50.890;5.982;2023-05-10T01:10:05;99473.94;;;14.12;100.00
36234;BME280;43467;50.890;5.982;2023-05-10T01:12:31;99499.38;;;14.16;100.00
36234;BME280;43467;50.890;5.982;2023-05-10T01:14:57;99488.81;;;14.15;100.00
36234;BME280;43467;50.890;5.982;2023-05-10T01:17:23;99499.69;;;14.24;100.00
36234;BME280;43467;50.890;5.982;2023-05-10T01:19:49;99491.91;;;14.21;100.00
36234;BME280;43467;50.890;5.982;2023-05-10T01:36:21;99487.47;;;14.09;100.00
36234;BME280;43467;50.890;5.982;2023-05-10T01:44:38;99488.75;;;14.04;100.00
36234;BME280;43467;50.890;5.982;2023-05-10T01:47:14;99490.00;;;14.11;100.00
36234;BME280;43467;50.890;5.982;2023-05-10T01:49:53;99495.97;;;14.14;100.00
36234;BME280;43467;50.890;5.982;2023-05-10T01:52:32;99486.72;;;14.07;100.00
36234;BME280;43467;50.890;5.982;2023-05-10T01:55:09;99487.25;;;14.12;100.00
36234;BME280;43467;50.890;5.982;2023-05-10T01:57:37;99494.72;;;14.07;100.00
36234;BME280;43467;50.890;5.982;2023-05-10T02:00:09;99495.34;;;14.11;100.00
36234;BME280;43467;50.890;5.982;2023-05-10T02:02:37;99499.59;;;14.13;100.00
36234;BME280;43467;50.890;5.982;2023-05-10T02:05:05;99498.78;;;14.00;100.00
36234;BME280;43467;50.890;5.982;2023-05-10T02:07:33;99495.50;;;13.96;100.00
36234;BME280;43467;50.890;5.982;2023-05-10T02:10:02;99505.19;;;13.98;100.00
36234;BME280;43467;50.890;5.982;2023-05-10T02:12:28;99498.44;;;14.05;100.00
36234;BME280;43467;50.890;5.982;2023-05-10T02:14:55;99503.78;;;14.05;100.00
36234;BME280;43467;50.890;5.982;2023-05-10T02:17:22;99507.72;;;13.99;100.00
36234;BME280;43467;50.890;5.982;2023-05-10T02:19:48;99505.81;;;14.01;100.00
36234;BME280;43467;50.890;5.982;2023-05-10T02:22:15;99518.81;;;13.93;100.00
36234;BME280;43467;50.890;5.982;2023-05-10T02:24:41;99519.75;;;13.92;100.00
36234;BME280;43467;50.890;5.982;2023-05-10T02:27:09;99516.03;;;13.82;100.00
36234;BME280;43467;50.890;5.982;2023-05-10T02:29:36;99519.13;;;13.76;100.00
36234;BME280;43467;50.890;5.982;2023-05-10T02:32:02;99525.63;;;13.84;100.00
36234;BME280;43467;50.890;5.982;2023-05-10T02:34:28;99527.22;;;13.87;100.00
36234;BME280;43467;50.890;5.982;2023-05-10T02:36:55;99527.03;;;13.77;100.00
36234;BME280;43467;50.890;5.982;2023-05-10T02:39:22;99523.91;;;13.96;100.00
36234;BME280;43467;50.890;5.982;2023-05-10T02:41:49;99528.91;;;14.01;100.00
36234;BME280;43467;50.890;5.982;2023-05-10T02:44:17;99531.50;;;13.89;100.00
36234;BME280;43467;50.890;5.982;2023-05-10T02:46:43;99533.63;;;13.84;100.00
36234;BME280;43467;50.890;5.982;2023-05-10T02:49:09;99533.53;;;13.73;100.00
36234;BME280;43467;50.890;5.982;2023-05-10T02:51:37;99528.84;;;13.77;100.00
36234;BME280;43467;50.890;5.982;2023-05-10T02:54:18;99528.06;;;13.75;100.00
36234;BME280;43467;50.890;5.982;2023-05-10T02:56:51;99519.22;;;13.62;100.00
36234;BME280;43467;50.890;5.982;2023-05-10T02:59:19;99535.50;;;13.70;100.00
36234;BME280;43467;50.890;5.982;2023-05-10T03:01:44;99533.94;;;13.67;100.00
36234;BME280;43467;50.890;5.982;2023-05-10T03:04:10;99528.38;;;13.58;100.00
36234;BME280;43467;50.890;5.982;2023-05-10T03:06:35;99524.75;;;13.46;100.00
36234;BME280;43467;50.890;5.982;2023-05-10T03:09:02;99532.84;;;13.57;100.00
36234;BME280;43467;50.890;5.982;2023-05-10T03:14:49;99535.19;;;13.49;100.00
36234;BME280;43467;50.890;5.982;2023-05-10T03:20:06;99535.84;;;13.65;100.00
36234;BME280;43467;50.890;5.982;2023-05-10T03:22:37;99532.34;;;13.52;100.00
36234;BME280;43467;50.890;5.982;2023-05-10T03:25:07;99536.38;;;13.58;100.00
36234;BME280;43467;50.890;5.982;2023-05-10T03:27:35;99528.91;;;13.50;100.00
36234;BME280;43467;50.890;5.982;2023-05-10T03:30:02;99532.22;;;13.54;100.00
36234;BME280;43467;50.890;5.982;2023-05-10T03:32:29;99533.81;;;13.56;100.00
36234;BME280;43467;50.890;5.982;2023-05-10T03:34:56;99527.75;;;13.54;100.00
36234;BME280;43467;50.890;5.982;2023-05-10T03:37:22;99522.75;;;13.49;100.00
36234;BME280;43467;50.890;5.982;2023-05-10T03:39:47;99534.25;;;13.63;100.00
36234;BME280;43467;50.890;5.982;2023-05-10T03:42:13;99528.38;;;13.58;100.00
36234;BME280;43467;50.890;5.982;2023-05-10T03:44:39;99531.47;;;13.52;100.00
36234;BME280;43467;50.890;5.982;2023-05-10T03:47:05;99537.66;;;13.52;100.00
36234;BME280;43467;50.890;5.982;2023-05-10T03:49:30;99538.59;;;13.51;100.00
36234;BME280;43467;50.890;5.982;2023-05-10T03:51:55;99544.22;;;13.46;100.00
36234;BME280;43467;50.890;5.982;2023-05-10T03:54:21;99537.97;;;13.47;100.00
36234;BME280;43467;50.890;5.982;2023-05-10T03:56:46;99546.81;;;13.48;100.00
36234;BME280;43467;50.890;5.982;2023-05-10T03:59:13;99542.22;;;13.50;100.00
36234;BME280;43467;50.890;5.982;2023-05-10T04:01:38;99552.00;;;13.49;100.00
36234;BME280;43467;50.890;5.982;2023-05-10T04:04:04;99548.94;;;13.56;100.00
36234;BME280;43467;50.890;5.982;2023-05-10T04:06:29;99552.00;;;13.49;100.00
36234;BME280;43467;50.890;5.982;2023-05-10T04:08:56;99549.22;;;13.38;100.00
36234;BME280;43467;50.890;5.982;2023-05-10T04:11:21;99549.66;;;13.45;100.00
36234;BME280;43467;50.890;5.982;2023-05-10T04:13:49;99550.50;;;13.45;100.00
36234;BME280;43467;50.890;5.982;2023-05-10T04:16:15;99551.25;;;13.47;100.00
36234;BME280;43467;50.890;5.982;2023-05-10T04:18:40;99542.84;;;13.41;100.00
36234;BME280;43467;50.890;5.982;2023-05-10T04:21:11;99548.38;;;13.50;100.00
36234;BME280;43467;50.890;5.982;2023-05-10T04:23:37;99542.84;;;13.41;100.00
36234;BME280;43467;50.890;5.982;2023-05-10T04:26:03;99541.78;;;13.43;100.00
36234;BME280;43467;50.890;5.982;2023-05-10T04:28:28;99550.16;;;13.37;100.00
36234;BME280;43467;50.890;5.982;2023-05-10T04:31:03;99536.78;;;13.39;100.00
36234;BME280;43467;50.890;5.982;2023-05-10T04:33:29;99546.69;;;13.49;100.00
36234;BME280;43467;50.890;5.982;2023-05-10T04:35:57;99544.78;;;13.52;100.00
36234;BME280;43467;50.890;5.982;2023-05-10T04:38:22;99549.00;;;13.41;100.00
36234;BME280;43467;50.890;5.982;2023-05-10T04:40:48;99541.25;;;13.38;100.00
36234;BME280;43467;50.890;5.982;2023-05-10T04:43:13;99547.63;;;13.36;100.00
36234;BME280;43467;50.890;5.982;2023-05-10T04:45:39;99547.50;;;13.37;100.00
36234;BME280;43467;50.890;5.982;2023-05-10T04:48:04;99558.28;;;13.36;100.00
36234;BME280;43467;50.890;5.982;2023-05-10T04:50:30;99557.09;;;13.40;100.00
36234;BME280;43467;50.890;5.982;2023-05-10T04:52:56;99558.16;;;13.50;100.00
36234;BME280;43467;50.890;5.982;2023-05-10T04:55:22;99556.69;;;13.46;100.00
36234;BME280;43467;50.890;5.982;2023-05-10T04:57:47;99561.34;;;13.42;100.00
36234;BME280;43467;50.890;5.982;2023-05-10T05:00:13;99562.00;;;13.46;100.00
36234;BME280;43467;50.890;5.982;2023-05-10T05:02:42;99569.25;;;13.44;100.00
36234;BME280;43467;50.890;5.982;2023-05-10T05:05:08;99556.03;;;13.42;100.00
36234;BME280;43467;50.890;5.982;2023-05-10T05:07:34;99567.00;;;13.50;100.00
36234;BME280;43467;50.890;5.982;2023-05-10T05:09:59;99564.66;;;13.59;100.00
36234;BME280;43467;50.890;5.982;2023-05-10T05:12:25;99566.38;;;13.60;100.00
36234;BME280;43467;50.890;5.982;2023-05-10T05:14:50;99555.44;;;13.64;100.00
36234;BME280;43467;50.890;5.982;2023-05-10T05:17:15;99576.81;;;13.75;100.00
36234;BME280;43467;50.890;5.982;2023-05-10T05:19:41;99570.00;;;13.59;100.00
36234;BME280;43467;50.890;5.982;2023-05-10T05:22:07;99571.25;;;13.66;100.00
36234;BME280;43467;50.890;5.982;2023-05-10T05:24:37;99580.31;;;13.63;100.00
36234;BME280;43467;50.890;5.982;2023-05-10T05:27:03;99570.84;;;13.59;100.00
36234;BME280;43467;50.890;5.982;2023-05-10T05:29:29;99573.28;;;13.62;100.00
36234;BME280;43467;50.890;5.982;2023-05-10T05:31:54;99583.41;;;13.70;100.00
36234;BME280;43467;50.890;5.982;2023-05-10T05:34:20;99585.56;;;13.77;100.00
36234;BME280;43467;50.890;5.982;2023-05-10T05:36:46;99590.31;;;13.60;100.00
36234;BME280;43467;50.890;5.982;2023-05-10T05:39:12;99591.69;;;13.53;100.00
36234;BME280;43467;50.890;5.982;2023-05-10T05:41:37;99597.75;;;13.55;100.00
36234;BME280;43467;50.890;5.982;2023-05-10T05:44:03;99595.09;;;13.55;100.00
36234;BME280;43467;50.890;5.982;2023-05-10T05:46:28;99595.53;;;13.48;100.00
36234;BME280;43467;50.890;5.982;2023-05-10T05:48:53;99604.44;;;13.47;100.00
36234;BME280;43467;50.890;5.982;2023-05-10T05:51:19;99605.63;;;13.56;100.00
36234;BME280;43467;50.890;5.982;2023-05-10T05:53:45;99600.75;;;13.63;100.00
36234;BME280;43467;50.890;5.982;2023-05-10T05:56:10;99606.53;;;13.69;100.00
36234;BME280;43467;50.890;5.982;2023-05-10T05:58:36;99602.50;;;13.37;100.00
36234;BME280;43467;50.890;5.982;2023-05-10T06:01:01;99606.81;;;13.52;100.00
36234;BME280;43467;50.890;5.982;2023-05-10T06:03:27;99603.63;;;13.60;100.00
36234;BME280;43467;50.890;5.982;2023-05-10T06:05:52;99607.34;;;13.70;100.00
36234;BME280;43467;50.890;5.982;2023-05-10T06:08:17;99600.53;;;13.66;100.00
36234;BME280;43467;50.890;5.982;2023-05-10T06:10:43;99619.47;;;13.74;100.00
36234;BME280;43467;50.890;5.982;2023-05-10T06:13:09;99617.81;;;13.85;100.00
36234;BME280;43467;50.890;5.982;2023-05-10T06:15:35;99615.03;;;13.87;100.00
36234;BME280;43467;50.890;5.982;2023-05-10T06:18:00;99619.28;;;13.77;100.00
36234;BME280;43467;50.890;5.982;2023-05-10T06:20:26;99614.81;;;13.90;100.00
36234;BME280;43467;50.890;5.982;2023-05-10T06:22:51;99617.47;;;13.90;100.00
36234;BME280;43467;50.890;5.982;2023-05-10T06:25:16;99620.88;;;13.92;100.00
36234;BME280;43467;50.890;5.982;2023-05-10T06:27:43;99617.16;;;13.94;100.00
36234;BME280;43467;50.890;5.982;2023-05-10T06:30:09;99629.28;;;13.98;100.00
36234;BME280;43467;50.890;5.982;2023-05-10T06:32:35;99629.28;;;14.11;100.00
36234;BME280;43467;50.890;5.982;2023-05-10T06:35:00;99635.47;;;13.86;100.00
36234;BME280;43467;50.890;5.982;2023-05-10T06:37:25;99638.66;;;13.79;100.00
36234;BME280;43467;50.890;5.982;2023-05-10T06:39:51;99634.59;;;13.86;100.00
36234;BME280;43467;50.890;5.982;2023-05-10T06:42:16;99637.16;;;13.87;100.00
36234;BME280;43467;50.890;5.982;2023-05-10T06:44:42;99645.06;;;13.89;100.00
36234;BME280;43467;50.890;5.982;2023-05-10T06:47:08;99644.44;;;13.85;100.00
36234;BME280;43467;50.890;5.982;2023-05-10T06:49:34;99641.94;;;13.82;100.00
36234;BME280;43467;50.890;5.982;2023-05-10T06:51:59;99651.84;;;13.80;100.00
36234;BME280;43467;50.890;5.982;2023-05-10T06:54:25;99660.16;;;13.76;100.00
36234;BME280;43467;50.890;5.982;2023-05-10T06:56:50;99665.47;;;13.76;100.00
36234;BME280;43467;50.890;5.982;2023-05-10T06:59:16;99658.88;;;13.69;100.00
36234;BME280;43467;50.890;5.982;2023-05-10T07:01:42;99665.34;;;13.65;100.00
36234;BME280;43467;50.890;5.982;2023-05-10T07:04:08;99666.50;;;13.61;100.00
36234;BME280;43467;50.890;5.982;2023-05-10T07:06:33;99669.56;;;13.55;100.00
36234;BME280;43467;50.890;5.982;2023-05-10T07:08:59;99675.31;;;13.48;100.00
36234;BME280;43467;50.890;5.982;2023-05-10T07:11:25;99678.41;;;13.55;100.00
36234;BME280;43467;50.890;5.982;2023-05-10T07:13:50;99681.28;;;13.52;100.00
36234;BME280;43467;50.890;5.982;2023-05-10T07:16:15;99686.50;;;13.66;100.00
36234;BME280;43467;50.890;5.982;2023-05-10T07:18:41;99693.72;;;13.52;100.00
36234;BME280;43467;50.890;5.982;2023-05-10T07:21:06;99705.00;;;13.55;100.00
36234;BME280;43467;50.890;5.982;2023-05-10T07:23:32;99696.16;;;13.55;100.00
36234;BME280;43467;50.890;5.982;2023-05-10T07:25:58;99699.38;;;13.60;100.00
36234;BME280;43467;50.890;5.982;2023-05-10T07:28:23;99703.50;;;13.51;100.00
36234;BME280;43467;50.890;5.982;2023-05-10T07:30:51;99694.75;;;13.49;100.00
36234;BME280;43467;50.890;5.982;2023-05-10T07:33:17;99702.00;;;13.47;100.00
36234;BME280;43467;50.890;5.982;2023-05-10T07:35:42;99705.44;;;13.62;100.00
36234;BME280;43467;50.890;5.982;2023-05-10T07:38:08;99700.78;;;13.65;100.00
36234;BME280;43467;50.890;5.982;2023-05-10T07:40:33;99710.16;;;13.71;100.00
36234;BME280;43467;50.890;5.982;2023-05-10T07:42:59;99710.59;;;13.77;100.00
36234;BME280;43467;50.890;5.982;2023-05-10T07:45:28;99708.69;;;13.79;100.00
36234;BME280;43467;50.890;5.982;2023-05-10T07:47:53;99711.09;;;13.70;100.00
36234;BME280;43467;50.890;5.982;2023-05-10T07:50:19;99710.09;;;13.58;100.00
36234;BME280;43467;50.890;5.982;2023-05-10T07:52:44;99706.97;;;13.78;100.00
36234;BME280;43467;50.890;5.982;2023-05-10T07:55:10;99721.03;;;13.80;100.00
36234;BME280;43467;50.890;5.982;2023-05-10T07:57:35;99723.06;;;13.77;100.00
36234;BME280;43467;50.890;5.982;2023-05-10T08:00:02;99715.50;;;13.83;100.00
36234;BME280;43467;50.890;5.982;2023-05-10T08:02:27;99725.75;;;13.89;100.00
36234;BME280;43467;50.890;5.982;2023-05-10T08:04:53;99717.81;;;13.75;100.00
36234;BME280;43467;50.890;5.982;2023-05-10T08:07:18;99724.34;;;13.84;100.00
36234;BME280;43467;50.890;5.982;2023-05-10T08:09:43;99726.78;;;13.87;100.00
36234;BME280;43467;50.890;5.982;2023-05-10T08:12:09;99731.91;;;13.90;100.00
36234;BME280;43467;50.890;5.982;2023-05-10T08:14:34;99723.31;;;13.99;100.00
36234;BME280;43467;50.890;5.982;2023-05-10T08:17:02;99731.81;;;13.91;100.00
36234;BME280;43467;50.890;5.982;2023-05-10T08:19:28;99731.06;;;13.89;100.00
36234;BME280;43467;50.890;5.982;2023-05-10T08:21:53;99736.50;;;13.88;100.00
36234;BME280;43467;50.890;5.982;2023-05-10T08:24:21;99735.53;;;13.89;100.00
36234;BME280;43467;50.890;5.982;2023-05-10T08:26:46;99731.16;;;13.88;100.00
36234;BME280;43467;50.890;5.982;2023-05-10T08:29:12;99733.41;;;13.81;100.00
36234;BME280;43467;50.890;5.982;2023-05-10T08:31:38;99735.00;;;13.57;100.00
36234;BME280;43467;50.890;5.982;2023-05-10T08:34:03;99748.16;;;13.73;100.00
36234;BME280;43467;50.890;5.982;2023-05-10T08:36:29;99743.56;;;13.75;100.00
36234;BME280;43467;50.890;5.982;2023-05-10T08:38:55;99743.66;;;13.61;100.00
36234;BME280;43467;50.890;5.982;2023-05-10T08:41:21;99747.47;;;13.57;100.00
36234;BME280;43467;50.890;5.982;2023-05-10T08:43:47;99754.25;;;13.48;100.00
36234;BME280;43467;50.890;5.982;2023-05-10T08:46:16;99761.22;;;13.36;100.00
36234;BME280;43467;50.890;5.982;2023-05-10T08:48:44;99759.00;;;13.43;100.00
36234;BME280;43467;50.890;5.982;2023-05-10T08:51:13;99762.25;;;13.34;100.00
36234;BME280;43467;50.890;5.982;2023-05-10T08:53:39;99774.69;;;13.33;100.00
36234;BME280;43467;50.890;5.982;2023-05-10T08:56:05;99772.81;;;13.21;100.00
36234;BME280;43467;50.890;5.982;2023-05-10T08:58:31;99776.31;;;13.22;100.00
36234;BME280;43467;50.890;5.982;2023-05-10T09:00:56;99779.75;;;13.24;100.00
36234;BME280;43467;50.890;5.982;2023-05-10T09:03:23;99781.84;;;13.19;100.00
36234;BME280;43467;50.890;5.982;2023-05-10T09:05:49;99787.72;;;13.24;100.00
36234;BME280;43467;50.890;5.982;2023-05-10T09:08:14;99781.13;;;13.29;100.00
36234;BME280;43467;50.890;5.982;2023-05-10T09:10:43;99790.84;;;13.30;100.00
36234;BME280;43467;50.890;5.982;2023-05-10T09:13:10;99786.66;;;13.40;100.00
36234;BME280;43467;50.890;5.982;2023-05-10T09:15:35;99794.72;;;13.39;100.00
36234;BME280;43467;50.890;5.982;2023-05-10T09:18:01;99793.66;;;13.41;100.00
36234;BME280;43467;50.890;5.982;2023-05-10T09:20:27;99795.09;;;13.33;100.00
36234;BME280;43467;50.890;5.982;2023-05-10T09:22:53;99798.31;;;13.38;100.00
36234;BME280;43467;50.890;5.982;2023-05-10T09:25:19;99798.72;;;13.32;100.00
36234;BME280;43467;50.890;5.982;2023-05-10T09:27:45;99794.56;;;13.28;100.00
36234;BME280;43467;50.890;5.982;2023-05-10T09:30:25;99802.97;;;13.34;100.00
36234;BME280;43467;50.890;5.982;2023-05-10T09:32:52;99799.63;;;13.45;100.00
36234;BME280;43467;50.890;5.982;2023-05-10T09:35:20;99804.16;;;13.57;100.00
36234;BME280;43467;50.890;5.982;2023-05-10T09:37:48;99811.03;;;13.47;100.00
36234;BME280;43467;50.890;5.982;2023-05-10T09:40:19;99807.38;;;13.62;100.00
36234;BME280;43467;50.890;5.982;2023-05-10T09:43:02;99814.50;;;13.62;100.00
36234;BME280;43467;50.890;5.982;2023-05-10T09:45:33;99813.69;;;13.74;100.00
36234;BME280;43467;50.890;5.982;2023-05-10T09:48:00;99807.22;;;13.78;100.00
36234;BME280;43467;50.890;5.982;2023-05-10T09:50:27;99815.63;;;13.72;100.00
36234;BME280;43467;50.890;5.982;2023-05-10T09:53:00;99806.06;;;13.82;100.00
36234;BME280;43467;50.890;5.982;2023-05-10T09:58:03;99805.53;;;13.77;100.00
36234;BME280;43467;50.890;5.982;2023-05-10T10:00:39;99815.56;;;13.86;100.00
36234;BME280;43467;50.890;5.982;2023-05-10T10:03:05;99806.75;;;13.98;100.00
36234;BME280;43467;50.890;5.982;2023-05-10T10:05:32;99808.81;;;14.07;100.00
36234;BME280;43467;50.890;5.982;2023-05-10T10:07:59;99798.59;;;14.01;100.00
36234;BME280;43467;50.890;5.982;2023-05-10T10:10:25;99811.81;;;14.15;100.00
36234;BME280;43467;50.890;5.982;2023-05-10T10:12:52;99814.16;;;14.07;100.00
36234;BME280;43467;50.890;5.982;2023-05-10T10:15:18;99808.50;;;14.12;100.00
36234;BME280;43467;50.890;5.982;2023-05-10T10:17:45;99811.13;;;13.99;100.00
36234;BME280;43467;50.890;5.982;2023-05-10T10:20:12;99806.63;;;14.14;100.00
36234;BME280;43467;50.890;5.982;2023-05-10T10:22:37;99811.81;;;14.15;100.00
36234;BME280;43467;50.890;5.982;2023-05-10T10:25:04;99809.81;;;14.19;100.00
36234;BME280;43467;50.890;5.982;2023-05-10T10:33:07;99807.94;;;14.33;100.00
36234;BME280;43467;50.890;5.982;2023-05-10T10:35:38;99811.38;;;14.35;99.33
36234;BME280;43467;50.890;5.982;2023-05-10T10:38:07;99808.97;;;14.31;96.51
36234;BME280;43467;50.890;5.982;2023-05-10T10:40:33;99816.97;;;14.31;97.49
36234;BME280;43467;50.890;5.982;2023-05-10T10:43:22;99816.06;;;14.45;96.43
36234;BME280;43467;50.890;5.982;2023-05-10T10:46:14;99815.53;;;14.52;96.32
36234;BME280;43467;50.890;5.982;2023-05-10T10:49:12;99809.06;;;14.56;95.71
36234;BME280;43467;50.890;5.982;2023-05-10T10:51:40;99816.94;;;14.58;94.88
36234;BME280;43467;50.890;5.982;2023-05-10T10:54:28;99820.25;;;14.61;94.52
36234;BME280;43467;50.890;5.982;2023-05-10T10:57:14;99814.28;;;14.58;93.72
36234;BME280;43467;50.890;5.982;2023-05-10T10:59:43;99811.81;;;14.67;93.60
36234;BME280;43467;50.890;5.982;2023-05-10T11:02:09;99814.06;;;14.73;93.08
36234;BME280;43467;50.890;5.982;2023-05-10T11:04:42;99819.72;;;14.81;92.88
36234;BME280;43467;50.890;5.982;2023-05-10T11:07:18;99813.84;;;14.64;91.90
36234;BME280;43467;50.890;5.982;2023-05-10T11:09:46;99823.88;;;14.73;92.99
36234;BME280;43467;50.890;5.982;2023-05-10T11:12:12;99826.13;;;14.79;91.88
36234;BME280;43467;50.890;5.982;2023-05-10T11:14:37;99818.44;;;14.74;91.31
36234;BME280;43467;50.890;5.982;2023-05-10T11:17:22;99824.97;;;14.83;91.76
36234;BME280;43467;50.890;5.982;2023-05-10T11:20:10;99828.69;;;14.80;90.91
36234;BME280;43467;50.890;5.982;2023-05-10T11:22:54;99822.81;;;14.88;90.59
36234;BME280;43467;50.890;5.982;2023-05-10T11:25:23;99830.06;;;14.86;91.54
36234;BME280;43467;50.890;5.982;2023-05-10T11:27:51;99826.22;;;15.03;90.90
36234;BME280;43467;50.890;5.982;2023-05-10T11:30:17;99831.09;;;15.21;91.70
36234;BME280;43467;50.890;5.982;2023-05-10T11:32:43;99834.94;;;15.17;88.65
36234;BME280;43467;50.890;5.982;2023-05-10T11:35:12;99829.75;;;15.16;89.22
36234;BME280;43467;50.890;5.982;2023-05-10T11:37:41;99830.47;;;15.18;89.50
36234;BME280;43467;50.890;5.982;2023-05-10T11:40:09;99839.97;;;15.09;89.88
36234;BME280;43467;50.890;5.982;2023-05-10T11:42:38;99833.44;;;15.26;90.91
36234;BME280;43467;50.890;5.982;2023-05-10T11:45:04;99834.09;;;15.17;90.15
36234;BME280;43467;50.890;5.982;2023-05-10T11:47:30;99826.94;;;15.30;89.67
36234;BME280;43467;50.890;5.982;2023-05-10T11:49:57;99832.16;;;15.44;89.76
36234;BME280;43467;50.890;5.982;2023-05-10T11:52:23;99838.66;;;15.53;88.91
36234;BME280;43467;50.890;5.982;2023-05-10T11:54:55;99840.88;;;15.46;85.46
36234;BME280;43467;50.890;5.982;2023-05-10T11:57:25;99833.97;;;15.44;85.36
36234;BME280;43467;50.890;5.982;2023-05-10T11:59:54;99838.31;;;15.45;82.82
36234;BME280;43467;50.890;5.982;2023-05-10T12:02:21;99839.00;;;15.35;83.21
36234;BME280;43467;50.890;5.982;2023-05-10T12:04:46;99834.44;;;15.49;84.03
36234;BME280;43467;50.890;5.982;2023-05-10T12:07:12;99833.66;;;15.35;83.49
36234;BME280;43467;50.890;5.982;2023-05-10T12:10:02;99836.09;;;15.39;84.66
36234;BME280;43467;50.890;5.982;2023-05-10T12:12:27;99837.03;;;15.38;84.87
36234;BME280;43467;50.890;5.982;2023-05-10T12:14:59;99845.13;;;15.49;85.12
36234;BME280;43467;50.890;5.982;2023-05-10T12:17:27;99841.97;;;15.44;83.93
36234;BME280;43467;50.890;5.982;2023-05-10T12:19:53;99846.22;;;15.59;85.88
36234;BME280;43467;50.890;5.982;2023-05-10T12:22:20;99845.78;;;15.65;84.82
36234;BME280;43467;50.890;5.982;2023-05-10T12:24:46;99851.06;;;15.77;84.12
36234;BME280;43467;50.890;5.982;2023-05-10T12:27:12;99847.84;;;15.85;83.05
36234;BME280;43467;50.890;5.982;2023-05-10T12:29:41;99852.28;;;15.97;83.54
36234;BME280;43467;50.890;5.982;2023-05-10T12:32:09;99849.66;;;15.85;81.00
36234;BME280;43467;50.890;5.982;2023-05-10T12:34:35;99838.41;;;15.68;81.89
36234;BME280;43467;50.890;5.982;2023-05-10T12:37:03;99846.47;;;15.79;82.03
36234;BME280;43467;50.890;5.982;2023-05-10T12:39:44;99848.53;;;15.76;79.91
36234;BME280;43467;50.890;5.982;2023-05-10T12:42:11;99849.16;;;15.79;80.47
36234;BME280;43467;50.890;5.982;2023-05-10T12:44:36;99854.38;;;15.81;80.95
36234;BME280;43467;50.890;5.982;2023-05-10T12:47:02;99846.53;;;15.91;80.94
36234;BME280;43467;50.890;5.982;2023-05-10T12:49:27;99854.44;;;15.92;79.63
36234;BME280;43467;50.890;5.982;2023-05-10T12:51:53;99851.34;;;15.86;79.75
36234;BME280;43467;50.890;5.982;2023-05-10T12:54:18;99855.28;;;15.93;78.31
36234;BME280;43467;50.890;5.982;2023-05-10T12:56:43;99855.00;;;16.08;79.10
36234;BME280;43467;50.890;5.982;2023-05-10T12:59:09;99846.19;;;16.19;80.01
36234;BME280;43467;50.890;5.982;2023-05-10T13:01:34;99860.28;;;16.21;76.72
36234;BME280;43467;50.890;5.982;2023-05-10T13:04:00;99860.88;;;16.13;76.55
36234;BME280;43467;50.890;5.982;2023-05-10T13:06:25;99858.88;;;16.04;77.26
36234;BME280;43467;50.890;5.982;2023-05-10T13:08:51;99866.59;;;15.96;78.69
36234;BME280;43467;50.890;5.982;2023-05-10T13:11:17;99871.19;;;15.94;78.82
36234;BME280;43467;50.890;5.982;2023-05-10T13:13:44;99869.25;;;15.96;78.65
36234;BME280;43467;50.890;5.982;2023-05-10T13:16:10;99864.84;;;16.08;78.38
36234;BME280;43467;50.890;5.982;2023-05-10T13:18:36;99866.53;;;16.09;79.38
36234;BME280;43467;50.890;5.982;2023-05-10T13:21:01;99871.88;;;16.09;77.15
36234;BME280;43467;50.890;5.982;2023-05-10T13:23:29;99865.84;;;15.94;77.12
36234;BME280;43467;50.890;5.982;2023-05-10T13:25:54;99870.56;;;15.91;75.56
36234;BME280;43467;50.890;5.982;2023-05-10T13:28:19;99868.50;;;15.94;76.45